Time;durP1;ratioP1;P1;durP2;ratioP2;P2;SDS_P1;SDS_P2;PMS_P1;PMS_P2;Temp;Humidity;BMP_temperature;BMP_pressure;BME280_temperature;BME280_humidity;BME280_pressure;Samples;Min_cycle;Max_cycle;Signal;HPM_P1;HPM_P2
2023/11/10 00:00:20;;;;;;;18.70;8.67;;;3.20;99.90;;;;;;4163463;28;20674;-61
2023/11/10 00:02:22;;;;;;;17.27;8.20;;;3.20;99.90;;;;;;4165761;28;20290;-62
2023/11/10 00:04:24;;;;;;;19.10;9.93;;;3.20;99.90;;;;;;4161582;28;20393;-61
2023/11/10 00:06:25;;;;;;;21.47;9.30;;;3.20;99.90;;;;;;4160385;28;20336;-61
2023/11/10 00:08:26;;;;;;;18.47;9.20;;;3.20;99.90;;;;;;4160632;28;20294;-61
2023/11/10 00:10:28;;;;;;;29.57;9.27;;;3.10;99.90;;;;;;4160149;28;21190;-62
2023/11/10 00:12:29;;;;;;;20.70;9.77;;;3.10;99.90;;;;;;4160960;28;20274;-61
2023/11/10 00:14:30;;;;;;;21.60;9.20;;;3.10;99.90;;;;;;4160341;28;20709;-61
2023/11/10 00:16:31;;;;;;;16.07;9.20;;;3.10;99.90;;;;;;4161373;28;20322;-59
2023/11/10 00:18:32;;;;;;;19.73;9.30;;;3.10;99.90;;;;;;4159352;28;20293;-59
2023/11/10 00:20:36;;;;;;;19.40;9.77;;;3.10;99.90;;;;;;4160931;28;20727;-57
2023/11/10 00:22:38;;;;;;;22.10;9.93;;;3.10;99.90;;;;;;4158774;28;20250;-61
2023/11/10 00:24:45;;;;;;;18.17;10.77;;;3.00;99.90;;;;;;4159700;28;20275;-60
2023/11/10 00:26:46;;;;;;;18.83;9.77;;;3.00;99.90;;;;;;4160786;28;20833;-60
2023/11/10 00:28:47;;;;;;;18.87;9.97;;;2.90;99.90;;;;;;4159484;28;20297;-61
2023/11/10 00:30:48;;;;;;;23.73;11.00;;;2.90;99.90;;;;;;4160975;28;20758;-60
2023/11/10 00:32:49;;;;;;;20.50;9.40;;;2.80;99.90;;;;;;4159699;28;20337;-60
2023/11/10 00:34:50;;;;;;;19.40;10.43;;;2.80;99.90;;;;;;4160844;28;20771;-60
2023/11/10 00:36:51;;;;;;;21.60;9.53;;;2.70;99.90;;;;;;4159812;28;20298;-60
2023/11/10 00:38:52;;;;;;;23.40;10.60;;;2.60;99.90;;;;;;4159987;28;20372;-60
2023/11/10 00:40:54;;;;;;;18.63;9.17;;;2.50;99.90;;;;;;4158829;28;20349;-60
2023/11/10 00:42:55;;;;;;;19.83;9.17;;;2.40;99.90;;;;;;4161153;28;20275;-59
2023/11/10 00:44:56;;;;;;;17.00;9.40;;;2.40;99.90;;;;;;4160346;28;20278;-59
2023/11/10 00:46:59;;;;;;;21.27;9.33;;;2.30;99.90;;;;;;4161350;28;20286;-61
2023/11/10 00:49:00;;;;;;;19.37;9.50;;;2.30;99.90;;;;;;4159875;28;20309;-59
2023/11/10 00:51:01;;;;;;;18.37;9.93;;;2.20;99.90;;;;;;4161197;28;20735;-59
2023/11/10 00:53:03;;;;;;;22.53;10.13;;;2.20;99.90;;;;;;4160212;28;20781;-59
2023/11/10 00:55:06;;;;;;;16.77;9.00;;;2.20;99.90;;;;;;4160850;28;20271;-59
2023/11/10 00:57:07;;;;;;;19.70;10.23;;;2.20;99.90;;;;;;4160559;28;20274;-60
2023/11/10 00:59:10;;;;;;;18.10;9.43;;;2.10;99.90;;;;;;4160184;28;20340;-61
2023/11/10 01:01:11;;;;;;;18.83;9.90;;;2.10;99.90;;;;;;4160593;28;20267;-61
2023/11/10 01:03:12;;;;;;;19.23;9.80;;;2.10;99.90;;;;;;4160068;28;20287;-60
2023/11/10 01:05:15;;;;;;;17.17;9.10;;;2.10;99.90;;;;;;4161096;28;20283;-61
2023/11/10 01:07:16;;;;;;;18.67;9.50;;;2.00;99.90;;;;;;4159881;28;20298;-60
2023/11/10 01:09:18;;;;;;;16.67;9.03;;;2.00;99.90;;;;;;4159524;28;20849;-61
2023/11/10 01:11:19;;;;;;;15.13;8.57;;;2.00;99.90;;;;;;4159371;28;20267;-61
2023/11/10 01:13:20;;;;;;;15.10;8.23;;;1.90;99.90;;;;;;4163279;28;20340;-59
2023/11/10 01:15:21;;;;;;;19.07;8.20;;;1.80;99.90;;;;;;4162800;28;20287;-60
2023/11/10 01:17:22;;;;;;;18.00;9.40;;;1.80;99.90;;;;;;4163921;28;20727;-60
2023/11/10 01:19:24;;;;;;;20.87;10.20;;;1.80;99.90;;;;;;4162181;28;20278;-60
2023/11/10 01:21:25;;;;;;;19.53;9.30;;;1.70;99.90;;;;;;4163920;28;20279;-60
2023/11/10 01:23:26;;;;;;;16.73;9.70;;;1.70;99.90;;;;;;4162995;28;20317;-61
2023/11/10 01:25:27;;;;;;;17.93;9.40;;;1.70;99.90;;;;;;4163080;28;20282;-61
2023/11/10 01:27:29;;;;;;;15.17;8.40;;;1.60;99.90;;;;;;4162254;28;20279;-61
2023/11/10 01:29:30;;;;;;;16.27;8.77;;;1.60;99.90;;;;;;4162116;28;20682;-60
2023/11/10 01:31:32;;;;;;;16.67;8.70;;;1.50;99.90;;;;;;4163562;28;20266;-60
2023/11/10 01:33:33;;;;;;;19.47;9.30;;;1.50;99.90;;;;;;4162539;28;20251;-60
2023/11/10 01:35:34;;;;;;;14.97;8.23;;;1.60;99.90;;;;;;4163802;28;20290;-60
2023/11/10 01:37:36;;;;;;;19.30;8.80;;;1.60;99.90;;;;;;4162162;28;20266;-60
2023/11/10 01:39:37;;;;;;;17.00;9.07;;;1.60;99.90;;;;;;4163867;28;20262;-60
2023/11/10 01:41:39;;;;;;;21.87;9.73;;;1.60;99.90;;;;;;4162631;28;20255;-58
2023/11/10 01:43:40;;;;;;;17.77;9.70;;;1.50;99.90;;;;;;4163713;28;20325;-60
2023/11/10 01:45:42;;;;;;;19.33;8.90;;;1.60;99.90;;;;;;4162556;28;20416;-60
2023/11/10 01:47:45;;;;;;;17.07;9.07;;;1.60;99.90;;;;;;4163373;28;20294;-60
2023/11/10 01:49:46;;;;;;;24.10;10.20;;;1.60;99.90;;;;;;4162535;28;20275;-59
2023/11/10 01:51:52;;;;;;;15.57;8.40;;;1.60;99.90;;;;;;4163904;28;20255;-60
2023/11/10 01:53:53;;;;;;;20.43;9.23;;;1.60;99.90;;;;;;4162603;28;20328;-60
2023/11/10 01:55:54;;;;;;;21.90;9.63;;;1.60;99.90;;;;;;4163463;28;20266;-61
2023/11/10 01:57:57;;;;;;;19.57;8.53;;;1.60;99.90;;;;;;4162625;28;20262;-61
2023/11/10 02:00:01;;;;;;;18.33;9.13;;;1.60;99.90;;;;;;4163229;28;20322;-59
2023/11/10 02:02:05;;;;;;;12.07;7.50;;;1.60;99.90;;;;;;4162831;28;20749;-60
2023/11/10 02:04:11;;;;;;;14.23;8.83;;;1.50;99.90;;;;;;4162749;28;20842;-60
2023/11/10 02:06:12;;;;;;;15.83;8.50;;;1.50;99.90;;;;;;4162676;28;20352;-61
2023/11/10 02:08:13;;;;;;;19.83;9.50;;;1.50;99.90;;;;;;4162261;28;20344;-61
2023/11/10 02:10:15;;;;;;;14.77;7.90;;;1.50;99.90;;;;;;4163190;28;20266;-61
2023/11/10 02:12:16;;;;;;;13.40;7.93;;;1.50;99.90;;;;;;4161846;28;20271;-60
2023/11/10 02:14:17;;;;;;;21.83;9.70;;;1.50;99.90;;;;;;4163243;28;20332;-61
2023/11/10 02:16:18;;;;;;;23.10;9.50;;;1.50;99.90;;;;;;4162093;28;20270;-60
2023/11/10 02:18:19;;;;;;;14.87;8.30;;;1.50;99.90;;;;;;4163307;28;21318;-61
2023/11/10 02:20:21;;;;;;;19.67;9.43;;;1.50;99.90;;;;;;4161898;28;20662;-59
2023/11/10 02:22:22;;;;;;;14.33;7.70;;;1.50;99.90;;;;;;4163518;28;20324;-61
2023/11/10 02:24:25;;;;;;;16.57;8.60;;;1.50;99.90;;;;;;4160582;28;20275;-60
2023/11/10 02:26:26;;;;;;;16.40;8.00;;;1.50;99.90;;;;;;4163017;28;20360;-59
2023/11/10 02:28:28;;;;;;;16.27;8.40;;;1.50;99.90;;;;;;4161948;28;20274;-58
2023/11/10 02:30:29;;;;;;;18.87;8.77;;;1.50;99.90;;;;;;4162713;28;20663;-60
2023/11/10 02:32:30;;;;;;;13.07;7.73;;;1.50;99.90;;;;;;4162164;28;20805;-60
2023/11/10 02:34:31;;;;;;;14.10;7.87;;;1.40;99.90;;;;;;4161349;28;20301;-60
2023/11/10 02:36:33;;;;;;;14.60;7.47;;;1.40;99.90;;;;;;4160595;28;20460;-61
2023/11/10 02:38:36;;;;;;;18.20;7.77;;;1.40;99.90;;;;;;4161406;28;20325;-59
2023/11/10 02:40:37;;;;;;;16.57;8.63;;;1.40;99.90;;;;;;4161886;28;20735;-61
2023/11/10 02:42:38;;;;;;;12.60;7.30;;;1.40;99.90;;;;;;4161535;28;20274;-61
2023/11/10 02:44:39;;;;;;;19.67;9.57;;;1.30;99.90;;;;;;4162540;28;20735;-60
2023/11/10 02:46:41;;;;;;;18.77;9.37;;;1.30;99.90;;;;;;4160817;28;20344;-61
2023/11/10 02:48:42;;;;;;;14.87;7.97;;;1.30;99.90;;;;;;4162482;28;20267;-56
2023/11/10 02:50:46;;;;;;;15.03;7.57;;;1.30;99.90;;;;;;4160613;28;20320;-59
2023/11/10 02:52:47;;;;;;;17.47;8.07;;;1.30;99.90;;;;;;4162850;28;20305;-60
2023/11/10 02:54:49;;;;;;;15.73;8.70;;;1.30;99.90;;;;;;4161438;28;20678;-60
2023/11/10 02:56:50;;;;;;;13.83;7.87;;;1.30;99.90;;;;;;4162679;28;20274;-60
2023/11/10 02:58:51;;;;;;;15.73;7.77;;;1.30;99.90;;;;;;4161297;28;20624;-60
2023/11/10 03:00:53;;;;;;;14.20;7.77;;;1.30;99.90;;;;;;4162098;28;20332;-60
2023/11/10 03:02:54;;;;;;;16.43;7.10;;;1.30;99.90;;;;;;4161367;28;20735;-60
2023/11/10 03:04:55;;;;;;;12.17;6.60;;;1.20;99.90;;;;;;4161660;28;20340;-60
2023/11/10 03:06:57;;;;;;;18.37;8.17;;;1.20;99.90;;;;;;4161627;28;20392;-61
2023/11/10 03:08:58;;;;;;;14.17;7.10;;;1.20;99.90;;;;;;4161434;28;20316;-57
2023/11/10 03:10:59;;;;;;;14.43;6.90;;;1.20;99.90;;;;;;4162280;28;20719;-60
2023/11/10 03:13:02;;;;;;;11.27;6.57;;;1.20;99.90;;;;;;4160774;28;20329;-61
2023/11/10 03:15:03;;;;;;;15.13;6.50;;;1.20;99.90;;;;;;4162191;28;20715;-58
2023/11/10 03:17:08;;;;;;;12.33;6.27;;;1.10;99.90;;;;;;4161048;28;20371;-60
2023/11/10 03:19:09;;;;;;;13.80;7.17;;;1.10;99.90;;;;;;4160983;28;20255;-60
2023/11/10 03:21:16;;;;;;;12.20;6.70;;;1.10;99.90;;;;;;4161041;28;20258;-60
2023/11/10 03:23:17;;;;;;;12.13;6.47;;;1.10;99.90;;;;;;4162521;28;20650;-60
2023/11/10 03:25:18;;;;;;;14.17;6.70;;;1.00;99.90;;;;;;4160927;28;20673;-60
2023/11/10 03:27:19;;;;;;;14.27;7.47;;;1.00;99.90;;;;;;4162216;28;20283;-60
2023/11/10 03:29:21;;;;;;;15.93;7.40;;;1.00;99.90;;;;;;4160590;28;20275;-60
2023/11/10 03:31:22;;;;;;;11.37;6.33;;;1.00;99.90;;;;;;4162081;28;20267;-61
2023/11/10 03:33:23;;;;;;;13.20;6.13;;;1.00;99.90;;;;;;4161055;28;20259;-60
2023/11/10 03:35:24;;;;;;;14.70;7.10;;;0.90;99.90;;;;;;4161138;28;20342;-61
2023/11/10 03:37:26;;;;;;;17.17;6.77;;;0.90;99.90;;;;;;4160492;28;20301;-60
2023/11/10 03:39:27;;;;;;;16.83;7.30;;;0.90;99.90;;;;;;4161382;28;20258;-59
2023/11/10 03:41:28;;;;;;;13.27;6.80;;;0.80;99.90;;;;;;4161307;28;20270;-58
2023/11/10 03:43:29;;;;;;;15.40;7.17;;;0.80;99.90;;;;;;4159632;28;20279;-60
2023/11/10 03:45:30;;;;;;;14.43;7.00;;;0.80;99.90;;;;;;4161530;28;20279;-60
2023/11/10 03:47:32;;;;;;;12.67;5.83;;;0.80;99.90;;;;;;4160676;28;21279;-59
2023/11/10 03:49:34;;;;;;;12.87;6.63;;;0.70;99.90;;;;;;4161769;28;20278;-60
2023/11/10 03:51:35;;;;;;;11.63;6.00;;;0.70;99.90;;;;;;4160603;28;20325;-60
2023/11/10 03:53:36;;;;;;;10.73;6.30;;;0.70;99.90;;;;;;4162002;28;20723;-58
2023/11/10 03:55:37;;;;;;;12.57;6.10;;;0.70;99.90;;;;;;4159927;28;20298;-61
2023/11/10 03:57:39;;;;;;;13.23;7.40;;;0.70;99.90;;;;;;4161414;28;20345;-61
2023/11/10 03:59:40;;;;;;;12.80;6.43;;;0.60;99.90;;;;;;4160654;28;20275;-60
2023/11/10 04:01:42;;;;;;;16.07;6.33;;;0.60;99.90;;;;;;4159484;28;20309;-59
2023/11/10 04:03:43;;;;;;;15.70;6.83;;;0.60;99.90;;;;;;4160141;28;20275;-59
2023/11/10 04:05:44;;;;;;;15.00;6.90;;;0.50;99.90;;;;;;4161283;28;20255;-55
2023/11/10 04:07:46;;;;;;;12.73;6.37;;;0.50;99.90;;;;;;4159682;28;20343;-62
2023/11/10 04:09:47;;;;;;;15.70;7.80;;;0.50;99.90;;;;;;4160826;28;20416;-59
2023/11/10 04:11:48;;;;;;;18.23;7.37;;;0.50;99.90;;;;;;4161169;28;20252;-59
2023/11/10 04:13:50;;;;;;;12.60;6.77;;;0.50;99.90;;;;;;4158834;28;20332;-60
2023/11/10 04:15:51;;;;;;;12.67;7.43;;;0.50;99.90;;;;;;4161174;28;20279;-61
2023/11/10 04:17:52;;;;;;;15.93;8.10;;;0.40;99.90;;;;;;4160489;28;20340;-61
2023/11/10 04:19:53;;;;;;;16.30;7.90;;;0.50;99.90;;;;;;4161240;28;20287;-61
2023/11/10 04:21:55;;;;;;;19.43;7.57;;;0.40;99.90;;;;;;4160222;28;20772;-61
2023/11/10 04:23:59;;;;;;;11.90;6.57;;;0.50;99.90;;;;;;4161599;28;20843;-61
2023/11/10 04:26:06;;;;;;;14.83;6.77;;;0.50;99.90;;;;;;4160473;28;20267;-61
2023/11/10 04:28:11;;;;;;;11.37;6.87;;;0.60;99.90;;;;;;4161231;28;20294;-60
2023/11/10 04:30:12;;;;;;;13.03;6.27;;;0.60;99.90;;;;;;4159823;28;20308;-60
2023/11/10 04:32:13;;;;;;;8.93;5.43;;;0.60;99.90;;;;;;4161122;28;20904;-62
2023/11/10 04:34:15;;;;;;;9.83;5.63;;;0.60;99.90;;;;;;4159512;28;20274;-62
2023/11/10 04:36:16;;;;;;;17.67;6.43;;;0.60;99.90;;;;;;4159681;28;20295;-61
2023/11/10 04:38:17;;;;;;;9.17;5.50;;;0.60;99.90;;;;;;4159777;28;20283;-60
2023/11/10 04:40:19;;;;;;;11.50;6.07;;;0.50;99.90;;;;;;4160884;28;20668;-61
2023/11/10 04:42:20;;;;;;;10.60;6.00;;;0.50;99.90;;;;;;4160165;28;20317;-61
2023/11/10 04:44:23;;;;;;;16.50;6.30;;;0.50;99.90;;;;;;4160146;28;20263;-54
2023/11/10 04:46:24;;;;;;;9.80;5.80;;;0.40;99.90;;;;;;4160592;28;20251;-60
2023/11/10 04:48:28;;;;;;;12.83;6.00;;;0.40;99.90;;;;;;4163123;28;20291;-62
2023/11/10 04:50:29;;;;;;;11.93;5.93;;;0.40;99.90;;;;;;4164315;28;20266;-60
2023/11/10 04:52:30;;;;;;;12.33;6.03;;;0.50;99.90;;;;;;4163566;28;20279;-60
2023/11/10 04:54:33;;;;;;;11.90;6.67;;;0.40;99.90;;;;;;4164315;28;20366;-60
2023/11/10 04:56:43;;;;;;;14.77;7.33;;;0.30;99.90;;;;;;4162804;28;20279;-60
2023/11/10 04:58:45;;;;;;;13.18;7.85;;;0.30;99.90;;;;;;4163753;28;20608;-61
2023/11/10 05:00:46;;;;;;;15.57;7.83;;;0.10;99.90;;;;;;4161543;28;20353;-62
2023/11/10 05:02:47;;;;;;;19.00;9.17;;;0.10;99.90;;;;;;4163824;28;20258;-60
2023/11/10 05:04:48;;;;;;;20.00;9.33;;;0.10;99.90;;;;;;4162625;28;21042;-57
2023/11/10 05:06:49;;;;;;;18.93;9.87;;;0.00;99.90;;;;;;4164001;28;20320;-60
2023/11/10 05:08:51;;;;;;;25.37;10.07;;;0.00;99.90;;;;;;4162902;28;20324;-60
2023/11/10 05:10:52;;;;;;;22.10;10.40;;;0.00;99.90;;;;;;4164054;28;20259;-60
2023/11/10 05:12:53;;;;;;;26.90;10.67;;;0.00;99.90;;;;;;4163159;28;20275;-60
2023/11/10 05:14:55;;;;;;;26.07;11.23;;;0.00;99.90;;;;;;4163326;28;20758;-60
2023/11/10 05:16:56;;;;;;;22.53;10.27;;;0.10;99.90;;;;;;4161730;28;20742;-60
2023/11/10 05:19:00;;;;;;;22.70;11.17;;;0.10;99.90;;;;;;4161980;28;20781;-60
2023/11/10 05:21:01;;;;;;;22.57;10.93;;;0.10;99.90;;;;;;4162867;28;20271;-60
2023/11/10 05:23:02;;;;;;;23.60;11.37;;;0.20;99.90;;;;;;4162709;28;20337;-61
2023/11/10 05:25:04;;;;;;;20.23;10.03;;;0.20;99.90;;;;;;4163450;28;20266;-60
2023/11/10 05:27:05;;;;;;;25.90;10.23;;;0.20;99.90;;;;;;4162350;28;20270;-60
2023/11/10 05:29:06;;;;;;;24.10;11.57;;;0.20;99.90;;;;;;4163536;28;20262;-60
2023/11/10 05:31:08;;;;;;;21.73;10.33;;;0.30;99.90;;;;;;4162009;28;20332;-58
2023/11/10 05:33:09;;;;;;;21.93;11.17;;;0.30;99.90;;;;;;4163837;28;20604;-60
2023/11/10 05:35:11;;;;;;;20.57;10.90;;;0.20;99.90;;;;;;4157405;28;20267;-59
2023/11/10 05:37:14;;;;;;;22.00;12.30;;;0.20;99.90;;;;;;4157025;28;20275;-60
2023/11/10 05:39:15;;;;;;;30.57;11.13;;;0.30;99.90;;;;;;4161818;28;20750;-62
2023/11/10 05:41:18;;;;;;;22.80;11.60;;;0.30;99.90;;;;;;4162949;28;20698;-61
2023/11/10 05:43:19;;;;;;;22.00;11.83;;;0.40;99.90;;;;;;4150291;28;20267;-59
2023/11/10 05:45:20;;;;;;;23.60;12.30;;;0.40;99.90;;;;;;4163074;28;20267;-61
2023/11/10 05:47:21;;;;;;;27.67;14.00;;;0.50;99.90;;;;;;4162494;28;20352;-61
2023/11/10 05:49:22;;;;;;;25.17;11.43;;;0.60;99.90;;;;;;4162631;28;20360;-62
2023/11/10 05:51:23;;;;;;;27.13;13.80;;;0.70;99.90;;;;;;4162236;28;20612;-60
2023/11/10 05:53:25;;;;;;;24.40;12.47;;;0.80;99.90;;;;;;4163032;28;20666;-61
2023/11/10 05:55:26;;;;;;;25.23;12.83;;;0.80;99.90;;;;;;4162853;28;20817;-60
2023/11/10 05:57:27;;;;;;;20.67;11.70;;;0.80;99.90;;;;;;4160942;28;20274;-60
2023/11/10 05:59:29;;;;;;;22.70;11.33;;;0.90;99.90;;;;;;4162885;28;20324;-58
2023/11/10 06:01:30;;;;;;;25.70;11.70;;;0.80;99.90;;;;;;4160731;28;20286;-59
2023/11/10 06:03:32;;;;;;;20.43;10.47;;;0.80;99.90;;;;;;4161556;28;20298;-60
2023/11/10 06:05:33;;;;;;;24.47;11.13;;;0.80;99.90;;;;;;4161189;28;20286;-59
2023/11/10 06:07:34;;;;;;;34.73;12.93;;;0.80;99.90;;;;;;4162120;28;20299;-60
2023/11/10 06:09:36;;;;;;;22.50;10.47;;;0.90;99.90;;;;;;4161137;28;20330;-60
2023/11/10 06:11:37;;;;;;;22.57;11.13;;;0.80;99.90;;;;;;4162816;28;20274;-59
2023/11/10 06:13:38;;;;;;;20.03;9.80;;;0.80;99.90;;;;;;4160496;28;20274;-59
2023/11/10 06:15:41;;;;;;;23.43;11.53;;;0.80;99.90;;;;;;4162958;28;20640;-60
2023/11/10 06:17:44;;;;;;;20.10;11.37;;;0.80;99.90;;;;;;4162255;28;20270;-60
2023/11/10 06:19:45;;;;;;;26.70;11.60;;;0.80;99.90;;;;;;4161954;28;20293;-60
2023/11/10 06:21:47;;;;;;;21.63;10.73;;;0.80;99.90;;;;;;4161889;28;20727;-61
2023/11/10 06:23:53;;;;;;;17.77;10.10;;;0.90;99.90;;;;;;4162586;28;20328;-61
2023/11/10 06:25:54;;;;;;;22.43;11.57;;;1.00;99.90;;;;;;4162058;28;20800;-61
2023/11/10 06:27:55;;;;;;;22.83;10.70;;;1.20;99.90;;;;;;4161868;28;20290;-60
2023/11/10 06:29:57;;;;;;;21.73;11.27;;;1.30;99.90;;;;;;4162561;28;20247;-59
2023/11/10 06:31:58;;;;;;;28.33;12.70;;;1.30;99.90;;;;;;4161451;28;20270;-59
2023/11/10 06:33:59;;;;;;;24.03;10.90;;;1.40;99.90;;;;;;4162505;28;20325;-60
2023/11/10 06:36:03;;;;;;;23.53;12.03;;;1.50;99.90;;;;;;4161426;28;20271;-60
2023/11/10 06:38:04;;;;;;;23.03;11.93;;;1.60;99.90;;;;;;4162460;28;20374;-59
2023/11/10 06:40:07;;;;;;;22.80;11.73;;;1.70;99.90;;;;;;4161188;28;20251;-62
2023/11/10 06:42:08;;;;;;;26.30;11.63;;;1.80;99.90;;;;;;4162379;28;20681;-61
2023/11/10 06:44:09;;;;;;;19.80;11.43;;;1.90;99.90;;;;;;4161258;28;20274;-60
2023/11/10 06:46:11;;;;;;;28.37;12.63;;;1.90;99.90;;;;;;4162466;28;20313;-60
2023/11/10 06:48:12;;;;;;;22.87;10.70;;;2.00;99.90;;;;;;4161214;28;20348;-61
2023/11/10 06:50:13;;;;;;;24.67;12.13;;;2.10;99.90;;;;;;4161721;28;20283;-61
2023/11/10 06:52:16;;;;;;;25.90;12.27;;;2.20;99.90;;;;;;4161258;28;20309;-61
2023/11/10 06:54:17;;;;;;;25.40;13.37;;;2.20;99.90;;;;;;4162173;28;20271;-61
2023/11/10 06:56:18;;;;;;;23.13;12.27;;;2.20;99.90;;;;;;4161596;28;20262;-61
2023/11/10 06:58:20;;;;;;;21.27;11.63;;;2.20;99.90;;;;;;4161087;28;20275;-60
2023/11/10 07:00:21;;;;;;;26.90;11.37;;;2.20;99.90;;;;;;4161830;28;20293;-61
2023/11/10 07:02:22;;;;;;;21.87;10.53;;;2.20;99.90;;;;;;4159426;28;20822;-61
2023/11/10 07:04:23;;;;;;;19.23;11.83;;;2.20;99.90;;;;;;4161885;28;20305;-61
2023/11/10 07:06:25;;;;;;;18.43;9.63;;;2.10;99.90;;;;;;4161090;28;20298;-61
2023/11/10 07:08:27;;;;;;;25.07;11.10;;;2.00;99.90;;;;;;4161818;28;20832;-60
2023/11/10 07:10:28;;;;;;;23.00;10.83;;;2.00;99.90;;;;;;4160075;28;20620;-60
2023/11/10 07:12:30;;;;;;;31.57;10.90;;;2.00;99.90;;;;;;4161974;28;20274;-61
2023/11/10 07:14:32;;;;;;;20.93;11.70;;;2.00;99.90;;;;;;4160704;28;20603;-61
2023/11/10 07:16:33;;;;;;;18.60;10.47;;;2.00;99.90;;;;;;4161912;28;20259;-60
2023/11/10 07:18:35;;;;;;;19.90;11.10;;;2.10;99.90;;;;;;4160542;28;20348;-59
2023/11/10 07:20:37;;;;;;;20.83;10.23;;;2.20;99.90;;;;;;4161668;28;20322;-59
2023/11/10 07:22:38;;;;;;;21.10;9.60;;;2.20;99.90;;;;;;4160832;28;20259;-60
2023/11/10 07:24:40;;;;;;;17.93;10.27;;;2.20;99.90;;;;;;4161946;28;20301;-61
2023/11/10 07:26:41;;;;;;;15.97;8.83;;;2.20;99.90;;;;;;4160940;28;20340;-61
2023/11/10 07:28:42;;;;;;;16.07;8.43;;;2.10;99.90;;;;;;4160732;28;20345;-60
2023/11/10 07:30:44;;;;;;;16.73;9.40;;;2.10;99.90;;;;;;4161322;28;20781;-61
2023/11/10 07:32:45;;;;;;;20.50;10.93;;;2.10;99.90;;;;;;4160690;28;20324;-60
2023/11/10 07:34:48;;;;;;;18.57;10.60;;;2.10;99.90;;;;;;4161415;28;20631;-61
2023/11/10 07:36:49;;;;;;;17.93;10.90;;;2.10;99.90;;;;;;4160313;28;20398;-60
2023/11/10 07:38:50;;;;;;;19.30;9.43;;;2.10;99.90;;;;;;4161524;28;20251;-59
2023/11/10 07:40:51;;;;;;;17.23;9.67;;;2.10;99.90;;;;;;4160526;28;20678;-60
2023/11/10 07:42:52;;;;;;;18.40;9.80;;;2.20;99.90;;;;;;4161470;28;20321;-62
2023/11/10 07:44:53;;;;;;;22.97;9.97;;;2.20;99.90;;;;;;4160655;28;20270;-60
2023/11/10 07:46:55;;;;;;;18.27;9.07;;;2.40;99.90;;;;;;4161585;28;20305;-60
2023/11/10 07:48:56;;;;;;;15.33;9.60;;;2.60;99.90;;;;;;4159842;28;20357;-60
2023/11/10 07:50:58;;;;;;;15.80;8.60;;;2.80;99.90;;;;;;4161308;28;20271;-60
2023/11/10 07:52:59;;;;;;;15.20;9.10;;;3.00;99.90;;;;;;4160272;28;20373;-60
2023/11/10 07:55:00;;;;;;;16.60;8.73;;;3.20;99.90;;;;;;4161240;28;20251;-59
2023/11/10 07:57:01;;;;;;;16.80;9.23;;;3.40;99.90;;;;;;4160266;28;20313;-57
2023/11/10 07:59:03;;;;;;;17.83;9.33;;;3.50;99.90;;;;;;4160376;28;20337;-62
2023/11/10 08:01:04;;;;;;;16.63;9.70;;;3.70;99.90;;;;;;4160740;28;21095;-60
2023/11/10 08:03:05;;;;;;;20.37;9.17;;;3.80;99.90;;;;;;4160101;28;20267;-58
2023/11/10 08:05:07;;;;;;;18.30;9.27;;;4.10;99.90;;;;;;4161041;28;20275;-60
2023/11/10 08:07:10;;;;;;;19.00;10.40;;;4.30;99.90;;;;;;4160089;28;20340;-60
2023/11/10 08:09:12;;;;;;;17.90;9.83;;;4.40;99.90;;;;;;4160821;28;20348;-59
2023/11/10 08:11:14;;;;;;;16.90;10.07;;;4.50;99.90;;;;;;4159692;28;20274;-59
2023/11/10 08:13:15;;;;;;;19.87;10.00;;;4.60;99.90;;;;;;4161135;28;20355;-60
2023/11/10 08:15:17;;;;;;;24.73;10.33;;;4.90;99.90;;;;;;4159676;28;20301;-60
2023/11/10 08:17:18;;;;;;;18.20;9.20;;;5.20;99.90;;;;;;4160512;28;20270;-58
2023/11/10 08:19:19;;;;;;;12.60;7.97;;;5.60;99.90;;;;;;4159454;28;20259;-61
2023/11/10 08:21:21;;;;;;;16.60;8.60;;;5.90;99.90;;;;;;4160425;28;20274;-59
2023/11/10 08:23:22;;;;;;;13.57;7.70;;;6.50;99.90;;;;;;4159806;28;20622;-61
2023/11/10 08:25:23;;;;;;;18.17;9.70;;;6.80;99.90;;;;;;4160541;28;20854;-60
2023/11/10 08:27:24;;;;;;;14.47;9.53;;;6.90;99.90;;;;;;4160170;28;20282;-62
2023/11/10 08:29:26;;;;;;;20.17;9.57;;;6.70;99.90;;;;;;4160016;28;20041;-62
2023/11/10 08:31:27;;;;;;;18.30;9.63;;;6.60;99.90;;;;;;4160499;28;20072;-61
2023/11/10 08:33:28;;;;;;;26.27;13.00;;;6.50;99.90;;;;;;4159623;28;20072;-61
2023/11/10 08:35:29;;;;;;;17.47;8.73;;;6.20;99.90;;;;;;4160644;28;20119;-61
2023/11/10 08:37:30;;;;;;;10.40;6.87;;;5.90;99.90;;;;;;4159717;28;20030;-60
2023/11/10 08:39:31;;;;;;;13.50;5.90;;;5.40;99.90;;;;;;4160717;28;20049;-61
2023/11/10 08:41:33;;;;;;;12.17;6.33;;;5.00;99.90;;;;;;4159669;28;20042;-59
2023/11/10 08:43:35;;;;;;;8.47;5.30;;;4.90;99.90;;;;;;4160824;28;20045;-60
2023/11/10 08:45:36;;;;;;;8.27;4.57;;;4.90;99.90;;;;;;4159782;28;20350;-58
2023/11/10 08:47:40;;;;;;;7.70;4.77;;;4.90;99.90;;;;;;4160885;28;20812;-61
2023/11/10 08:49:45;;;;;;;6.03;4.77;;;4.80;99.90;;;;;;4159668;28;20263;-59
2023/11/10 08:51:47;;;;;;;7.70;5.27;;;4.80;99.90;;;;;;4160685;28;20084;-61
2023/11/10 08:53:49;;;;;;;8.37;5.33;;;4.80;99.90;;;;;;4159646;28;20262;-61
2023/11/10 08:55:50;;;;;;;13.23;6.43;;;4.90;99.90;;;;;;4160320;28;20270;-60
2023/11/10 08:57:51;;;;;;;9.47;5.67;;;5.00;99.90;;;;;;4159738;28;20356;-61
2023/11/10 08:59:52;;;;;;;10.10;5.53;;;5.10;99.90;;;;;;4159946;28;20103;-60
2023/11/10 09:01:53;;;;;;;17.17;5.93;;;5.20;99.90;;;;;;4159852;28;20092;-60
2023/11/10 09:03:54;;;;;;;11.00;5.27;;;5.30;99.90;;;;;;4159688;28;20041;-60
2023/11/10 09:05:56;;;;;;;9.47;4.57;;;5.40;99.90;;;;;;4160327;28;20642;-60
2023/11/10 09:07:57;;;;;;;9.60;5.20;;;5.50;99.90;;;;;;4159467;28;20041;-61
2023/11/10 09:10:00;;;;;;;7.97;4.90;;;5.60;99.90;;;;;;4160696;28;20259;-59
2023/11/10 09:12:01;;;;;;;11.97;5.47;;;5.70;99.90;;;;;;4159336;28;20425;-63
2023/11/10 09:14:03;;;;;;;9.17;4.90;;;5.70;99.90;;;;;;4160530;28;20080;-61
2023/11/10 09:16:05;;;;;;;13.17;7.23;;;5.80;99.90;;;;;;4159311;28;20026;-60
2023/11/10 09:18:06;;;;;;;10.33;6.53;;;5.90;99.90;;;;;;4160489;28;20485;-60
2023/11/10 09:20:07;;;;;;;10.50;5.70;;;6.10;99.90;;;;;;4159294;28;20034;-60
2023/11/10 09:22:08;;;;;;;10.43;5.63;;;6.20;99.90;;;;;;4160688;28;20099;-61
2023/11/10 09:24:10;;;;;;;11.30;4.73;;;6.30;99.90;;;;;;4158154;28;20152;-61
2023/11/10 09:26:12;;;;;;;8.03;4.00;;;6.40;99.90;;;;;;4160044;28;20091;-59
2023/11/10 09:28:13;;;;;;;7.23;3.83;;;6.50;99.90;;;;;;4159361;28;20407;-60
2023/11/10 09:30:15;;;;;;;5.73;3.87;;;6.50;99.90;;;;;;4159975;28;20045;-59
2023/11/10 09:32:16;;;;;;;8.57;3.43;;;6.60;99.90;;;;;;4159250;28;20037;-59
2023/11/10 09:34:18;;;;;;;10.10;4.30;;;6.60;99.90;;;;;;4161840;28;20025;-60
2023/11/10 09:36:19;;;;;;;8.90;4.70;;;6.70;99.90;;;;;;4162604;28;20057;-59
2023/11/10 09:38:21;;;;;;;11.23;4.63;;;6.80;99.90;;;;;;4162431;28;20144;-61
2023/11/10 09:40:23;;;;;;;14.20;4.63;;;6.90;99.90;;;;;;4161834;28;20041;-59
2023/11/10 09:42:26;;;;;;;11.10;5.20;;;6.90;99.90;;;;;;4161955;28;20543;-60
2023/11/10 09:44:28;;;;;;;7.20;5.40;;;7.00;99.90;;;;;;4162910;28;20037;-60
2023/11/10 09:46:31;;;;;;;8.13;5.93;;;7.00;99.90;;;;;;4161822;28;20041;-59
2023/11/10 09:48:33;;;;;;;11.13;5.83;;;7.00;99.90;;;;;;4162583;28;20049;-58
2023/11/10 09:50:37;;;;;;;7.00;3.80;;;7.00;99.90;;;;;;4161947;28;20037;-61
2023/11/10 09:52:40;;;;;;;6.67;4.17;;;7.00;99.90;;;;;;4163304;28;20046;-60
2023/11/10 09:54:44;;;;;;;7.17;3.50;;;6.90;99.90;;;;;;4162361;28;20079;-61
2023/11/10 09:56:46;;;;;;;9.13;4.67;;;7.00;99.90;;;;;;4163149;28;20363;-60
2023/11/10 09:58:50;;;;;;;7.63;3.20;;;6.90;99.90;;;;;;4161954;28;20124;-61
2023/11/10 10:00:51;;;;;;;6.60;3.87;;;7.00;99.90;;;;;;4162952;28;20532;-58
2023/11/10 10:02:52;;;;;;;5.83;3.33;;;7.00;99.90;;;;;;4161895;28;20044;-58
2023/11/10 10:04:53;;;;;;;9.17;4.13;;;7.10;99.90;;;;;;4162268;28;20084;-60
2023/11/10 10:06:58;;;;;;;10.80;4.47;;;7.10;99.90;;;;;;4162164;28;20140;-60
2023/11/10 10:09:04;;;;;;;8.17;4.30;;;7.10;99.90;;;;;;4162183;28;20383;-60
2023/11/10 10:11:05;;;;;;;6.80;3.80;;;7.10;99.90;;;;;;4161992;28;20025;-60
2023/11/10 10:13:08;;;;;;;6.50;3.80;;;7.00;99.90;;;;;;4162166;28;20065;-62
2023/11/10 10:15:12;;;;;;;6.90;3.57;;;7.10;99.90;;;;;;4162346;28;20077;-61
2023/11/10 10:17:13;;;;;;;9.63;4.10;;;7.10;99.90;;;;;;4161349;28;20489;-61
2023/11/10 10:19:24;;;;;;;7.53;4.20;;;7.10;99.90;;;;;;4162812;28;20103;-61
2023/11/10 10:21:25;;;;;;;;;;;7.20;99.90;;;;;;4162204;28;20084;-62
2023/11/10 10:23:27;;;;;;;6.93;3.33;;;7.10;99.90;;;;;;4162955;28;20312;-60
2023/11/10 10:25:28;;;;;;;8.83;4.03;;;7.10;99.90;;;;;;4161881;28;20067;-61
2023/11/10 10:27:30;;;;;;;9.97;4.07;;;7.20;99.90;;;;;;4162817;28;20083;-62
2023/11/10 10:29:31;;;;;;;5.83;3.90;;;7.20;99.90;;;;;;4161522;28;20084;-61
2023/11/10 10:31:32;;;;;;;6.60;3.20;;;7.30;99.90;;;;;;4162896;28;20393;-62